sensor_id;sensor_type;location;lat;lon;timestamp;P1;durP1;ratioP1;P2;durP2;ratioP2
23115;SDS011;11727;52.134;5.052;2023-06-14T00:01:41;5.72;;;1.88;;
23115;SDS011;11727;52.134;5.052;2023-06-14T00:04:10;6.97;;;1.90;;
23115;SDS011;11727;52.134;5.052;2023-06-14T00:06:36;3.85;;;2.10;;
23115;SDS011;11727;52.134;5.052;2023-06-14T00:09:03;3.60;;;1.50;;
23115;SDS011;11727;52.134;5.052;2023-06-14T00:11:29;8.35;;;1.40;;
23115;SDS011;11727;52.134;5.052;2023-06-14T00:13:58;5.22;;;1.80;;
23115;SDS011;11727;52.134;5.052;2023-06-14T00:16:23;2.80;;;1.58;;
23115;SDS011;11727;52.134;5.052;2023-06-14T00:18:49;9.52;;;2.00;;
23115;SDS011;11727;52.134;5.052;2023-06-14T00:21:17;2.78;;;1.40;;
23115;SDS011;11727;52.134;5.052;2023-06-14T00:23:44;6.53;;;1.80;;
23115;SDS011;11727;52.134;5.052;2023-06-14T00:26:09;3.35;;;1.50;;
23115;SDS011;11727;52.134;5.052;2023-06-14T00:28:35;4.65;;;1.50;;
23115;SDS011;11727;52.134;5.052;2023-06-14T00:31:01;4.32;;;1.77;;
23115;SDS011;11727;52.134;5.052;2023-06-14T00:33:26;3.38;;;1.90;;
23115;SDS011;11727;52.134;5.052;2023-06-14T00:35:52;5.55;;;1.52;;
23115;SDS011;11727;52.134;5.052;2023-06-14T00:38:20;4.38;;;1.60;;
23115;SDS011;11727;52.134;5.052;2023-06-14T00:40:46;3.58;;;1.42;;
23115;SDS011;11727;52.134;5.052;2023-06-14T00:43:12;3.95;;;1.45;;
23115;SDS011;11727;52.134;5.052;2023-06-14T00:45:37;4.18;;;1.73;;
23115;SDS011;11727;52.134;5.052;2023-06-14T00:48:03;2.97;;;1.52;;
23115;SDS011;11727;52.134;5.052;2023-06-14T00:52:58;3.70;;;1.60;;
23115;SDS011;11727;52.134;5.052;2023-06-14T00:55:24;7.85;;;1.60;;
23115;SDS011;11727;52.134;5.052;2023-06-14T00:57:50;2.20;;;1.20;;
23115;SDS011;11727;52.134;5.052;2023-06-14T01:00:16;5.63;;;1.83;;
23115;SDS011;11727;52.134;5.052;2023-06-14T01:02:42;3.67;;;1.50;;
23115;SDS011;11727;52.134;5.052;2023-06-14T01:05:08;11.88;;;1.52;;
23115;SDS011;11727;52.134;5.052;2023-06-14T01:07:43;5.03;;;1.47;;
23115;SDS011;11727;52.134;5.052;2023-06-14T01:13:32;4.28;;;1.30;;
23115;SDS011;11727;52.134;5.052;2023-06-14T01:16:04;2.92;;;1.70;;
23115;SDS011;11727;52.134;5.052;2023-06-14T01:18:31;3.25;;;1.33;;
23115;SDS011;11727;52.134;5.052;2023-06-14T01:20:57;2.78;;;1.40;;
23115;SDS011;11727;52.134;5.052;2023-06-14T01:23:23;3.53;;;1.63;;
23115;SDS011;11727;52.134;5.052;2023-06-14T01:25:49;2.40;;;1.20;;
23115;SDS011;11727;52.134;5.052;2023-06-14T01:28:17;5.20;;;1.52;;
23115;SDS011;11727;52.134;5.052;2023-06-14T01:30:46;4.47;;;1.40;;
23115;SDS011;11727;52.134;5.052;2023-06-14T01:33:15;7.03;;;1.40;;
23115;SDS011;11727;52.134;5.052;2023-06-14T01:35:43;5.80;;;1.48;;
23115;SDS011;11727;52.134;5.052;2023-06-14T01:38:10;9.43;;;1.73;;
23115;SDS011;11727;52.134;5.052;2023-06-14T01:40:37;5.38;;;1.63;;
23115;SDS011;11727;52.134;5.052;2023-06-14T01:43:04;3.58;;;1.50;;
23115;SDS011;11727;52.134;5.052;2023-06-14T01:45:31;6.03;;;1.42;;
23115;SDS011;11727;52.134;5.052;2023-06-14T01:47:57;5.88;;;1.88;;
23115;SDS011;11727;52.134;5.052;2023-06-14T01:50:27;8.25;;;1.70;;
23115;SDS011;11727;52.134;5.052;2023-06-14T01:52:56;3.47;;;1.52;;
23115;SDS011;11727;52.134;5.052;2023-06-14T01:55:22;3.13;;;1.50;;
23115;SDS011;11727;52.134;5.052;2023-06-14T01:57:49;3.22;;;1.42;;
23115;SDS011;11727;52.134;5.052;2023-06-14T02:00:15;3.00;;;1.60;;
23115;SDS011;11727;52.134;5.052;2023-06-14T02:02:43;3.13;;;1.67;;
23115;SDS011;11727;52.134;5.052;2023-06-14T02:05:09;4.05;;;1.58;;
23115;SDS011;11727;52.134;5.052;2023-06-14T02:07:35;5.18;;;2.33;;
23115;SDS011;11727;52.134;5.052;2023-06-14T02:10:02;4.72;;;1.50;;
23115;SDS011;11727;52.134;5.052;2023-06-14T02:12:29;7.95;;;1.70;;
23115;SDS011;11727;52.134;5.052;2023-06-14T02:14:54;3.47;;;1.45;;
23115;SDS011;11727;52.134;5.052;2023-06-14T02:17:21;3.30;;;2.17;;
23115;SDS011;11727;52.134;5.052;2023-06-14T02:19:47;5.28;;;1.70;;
23115;SDS011;11727;52.134;5.052;2023-06-14T02:22:13;4.63;;;1.50;;
23115;SDS011;11727;52.134;5.052;2023-06-14T02:24:40;7.00;;;1.33;;
23115;SDS011;11727;52.134;5.052;2023-06-14T02:27:06;3.25;;;1.42;;
23115;SDS011;11727;52.134;5.052;2023-06-14T02:29:35;2.63;;;1.38;;
23115;SDS011;11727;52.134;5.052;2023-06-14T02:32:01;4.50;;;1.75;;
23115;SDS011;11727;52.134;5.052;2023-06-14T02:34:26;1.98;;;1.00;;
23115;SDS011;11727;52.134;5.052;2023-06-14T02:36:52;2.80;;;1.50;;
23115;SDS011;11727;52.134;5.052;2023-06-14T02:39:17;3.90;;;1.20;;
23115;SDS011;11727;52.134;5.052;2023-06-14T02:41:45;3.03;;;1.45;;
23115;SDS011;11727;52.134;5.052;2023-06-14T02:44:13;2.00;;;1.27;;
23115;SDS011;11727;52.134;5.052;2023-06-14T02:46:40;3.05;;;1.50;;
23115;SDS011;11727;52.134;5.052;2023-06-14T02:49:06;10.63;;;1.95;;
23115;SDS011;11727;52.134;5.052;2023-06-14T02:51:31;2.63;;;1.40;;
23115;SDS011;11727;52.134;5.052;2023-06-14T02:53:57;3.08;;;1.30;;
23115;SDS011;11727;52.134;5.052;2023-06-14T02:56:22;5.28;;;1.70;;
23115;SDS011;11727;52.134;5.052;2023-06-14T02:58:48;6.07;;;2.13;;
23115;SDS011;11727;52.134;5.052;2023-06-14T03:01:14;8.70;;;1.30;;
23115;SDS011;11727;52.134;5.052;2023-06-14T03:06:07;5.80;;;1.38;;
23115;SDS011;11727;52.134;5.052;2023-06-14T03:08:33;6.10;;;1.67;;
23115;SDS011;11727;52.134;5.052;2023-06-14T03:11:03;4.40;;;1.30;;
23115;SDS011;11727;52.134;5.052;2023-06-14T03:13:32;2.65;;;1.30;;
23115;SDS011;11727;52.134;5.052;2023-06-14T03:16:02;4.43;;;1.23;;
23115;SDS011;11727;52.134;5.052;2023-06-14T03:18:29;5.78;;;1.38;;
23115;SDS011;11727;52.134;5.052;2023-06-14T03:23:23;5.32;;;1.17;;
23115;SDS011;11727;52.134;5.052;2023-06-14T03:25:50;2.40;;;1.10;;
23115;SDS011;11727;52.134;5.052;2023-06-14T03:28:16;5.93;;;1.45;;
23115;SDS011;11727;52.134;5.052;2023-06-14T03:30:42;4.68;;;1.65;;
23115;SDS011;11727;52.134;5.052;2023-06-14T03:33:08;3.28;;;1.55;;
23115;SDS011;11727;52.134;5.052;2023-06-14T03:35:34;4.07;;;1.65;;
23115;SDS011;11727;52.134;5.052;2023-06-14T03:38:00;5.95;;;1.60;;
23115;SDS011;11727;52.134;5.052;2023-06-14T03:40:25;5.60;;;1.58;;
23115;SDS011;11727;52.134;5.052;2023-06-14T03:42:53;1.77;;;1.00;;
23115;SDS011;11727;52.134;5.052;2023-06-14T03:45:19;2.83;;;1.03;;
23115;SDS011;11727;52.134;5.052;2023-06-14T03:47:45;2.33;;;1.20;;
23115;SDS011;11727;52.134;5.052;2023-06-14T03:50:11;7.40;;;2.28;;
23115;SDS011;11727;52.134;5.052;2023-06-14T03:52:37;3.70;;;1.55;;
23115;SDS011;11727;52.134;5.052;2023-06-14T03:55:03;3.42;;;1.48;;
23115;SDS011;11727;52.134;5.052;2023-06-14T03:57:29;6.25;;;1.48;;
23115;SDS011;11727;52.134;5.052;2023-06-14T03:59:55;3.63;;;1.73;;
23115;SDS011;11727;52.134;5.052;2023-06-14T04:02:21;8.02;;;1.90;;
23115;SDS011;11727;52.134;5.052;2023-06-14T04:04:47;3.67;;;1.45;;
23115;SDS011;11727;52.134;5.052;2023-06-14T04:07:13;8.13;;;1.75;;
23115;SDS011;11727;52.134;5.052;2023-06-14T04:09:40;3.05;;;1.40;;
23115;SDS011;11727;52.134;5.052;2023-06-14T04:12:06;3.08;;;1.20;;
23115;SDS011;11727;52.134;5.052;2023-06-14T04:14:36;4.00;;;1.75;;
23115;SDS011;11727;52.134;5.052;2023-06-14T04:17:04;3.55;;;1.75;;
23115;SDS011;11727;52.134;5.052;2023-06-14T04:19:30;4.18;;;1.42;;
23115;SDS011;11727;52.134;5.052;2023-06-14T04:21:56;4.18;;;1.50;;
23115;SDS011;11727;52.134;5.052;2023-06-14T04:24:22;7.90;;;1.88;;
23115;SDS011;11727;52.134;5.052;2023-06-14T04:26:48;5.72;;;1.77;;
23115;SDS011;11727;52.134;5.052;2023-06-14T04:29:14;2.47;;;1.52;;
23115;SDS011;11727;52.134;5.052;2023-06-14T04:31:41;4.80;;;1.90;;
23115;SDS011;11727;52.134;5.052;2023-06-14T04:34:09;6.45;;;1.90;;
23115;SDS011;11727;52.134;5.052;2023-06-14T04:36:41;3.92;;;1.33;;
23115;SDS011;11727;52.134;5.052;2023-06-14T04:39:18;7.22;;;1.67;;
23115;SDS011;11727;52.134;5.052;2023-06-14T04:41:46;4.22;;;1.50;;
23115;SDS011;11727;52.134;5.052;2023-06-14T04:44:12;4.50;;;1.40;;
23115;SDS011;11727;52.134;5.052;2023-06-14T04:46:38;2.83;;;1.80;;
23115;SDS011;11727;52.134;5.052;2023-06-14T04:49:12;3.33;;;1.45;;
23115;SDS011;11727;52.134;5.052;2023-06-14T04:51:40;6.38;;;1.20;;
23115;SDS011;11727;52.134;5.052;2023-06-14T04:54:07;5.05;;;1.90;;
23115;SDS011;11727;52.134;5.052;2023-06-14T04:56:35;2.75;;;1.27;;
23115;SDS011;11727;52.134;5.052;2023-06-14T04:59:02;3.55;;;1.33;;
23115;SDS011;11727;52.134;5.052;2023-06-14T05:01:29;2.33;;;1.27;;
23115;SDS011;11727;52.134;5.052;2023-06-14T05:03:57;4.32;;;1.40;;
23115;SDS011;11727;52.134;5.052;2023-06-14T05:06:23;2.05;;;1.20;;
23115;SDS011;11727;52.134;5.052;2023-06-14T05:08:49;2.92;;;1.10;;
23115;SDS011;11727;52.134;5.052;2023-06-14T05:11:14;6.80;;;1.60;;
23115;SDS011;11727;52.134;5.052;2023-06-14T05:13:41;2.33;;;1.27;;
23115;SDS011;11727;52.134;5.052;2023-06-14T05:16:08;3.75;;;1.30;;
23115;SDS011;11727;52.134;5.052;2023-06-14T05:18:34;3.53;;;1.73;;
23115;SDS011;11727;52.134;5.052;2023-06-14T05:21:00;2.72;;;1.40;;
23115;SDS011;11727;52.134;5.052;2023-06-14T05:23:26;4.38;;;1.58;;
23115;SDS011;11727;52.134;5.052;2023-06-14T05:25:52;3.17;;;1.85;;
23115;SDS011;11727;52.134;5.052;2023-06-14T05:28:18;2.35;;;1.30;;
23115;SDS011;11727;52.134;5.052;2023-06-14T05:30:43;2.88;;;1.42;;
23115;SDS011;11727;52.134;5.052;2023-06-14T05:33:09;3.13;;;1.48;;
23115;SDS011;11727;52.134;5.052;2023-06-14T05:35:35;8.00;;;1.40;;
23115;SDS011;11727;52.134;5.052;2023-06-14T05:38:00;4.18;;;1.40;;
23115;SDS011;11727;52.134;5.052;2023-06-14T05:40:26;7.18;;;1.38;;
23115;SDS011;11727;52.134;5.052;2023-06-14T05:42:52;4.05;;;1.30;;
23115;SDS011;11727;52.134;5.052;2023-06-14T05:45:17;4.03;;;1.30;;
23115;SDS011;11727;52.134;5.052;2023-06-14T05:47:43;5.30;;;1.60;;
23115;SDS011;11727;52.134;5.052;2023-06-14T05:50:08;4.85;;;1.55;;
23115;SDS011;11727;52.134;5.052;2023-06-14T05:52:34;4.93;;;1.50;;
23115;SDS011;11727;52.134;5.052;2023-06-14T05:55:03;6.05;;;1.65;;
23115;SDS011;11727;52.134;5.052;2023-06-14T05:57:31;5.85;;;1.40;;
23115;SDS011;11727;52.134;5.052;2023-06-14T05:59:56;2.53;;;1.25;;
23115;SDS011;11727;52.134;5.052;2023-06-14T06:02:22;3.10;;;1.48;;
23115;SDS011;11727;52.134;5.052;2023-06-14T06:04:47;5.05;;;1.30;;
23115;SDS011;11727;52.134;5.052;2023-06-14T06:07:13;7.45;;;1.70;;
23115;SDS011;11727;52.134;5.052;2023-06-14T06:09:39;6.47;;;1.70;;
23115;SDS011;11727;52.134;5.052;2023-06-14T06:12:06;5.50;;;1.80;;
23115;SDS011;11727;52.134;5.052;2023-06-14T06:14:32;6.28;;;1.67;;
23115;SDS011;11727;52.134;5.052;2023-06-14T06:16:57;5.32;;;1.70;;
23115;SDS011;11727;52.134;5.052;2023-06-14T06:19:23;2.08;;;1.27;;
23115;SDS011;11727;52.134;5.052;2023-06-14T06:21:49;7.35;;;1.60;;
23115;SDS011;11727;52.134;5.052;2023-06-14T06:24:15;4.15;;;1.60;;
23115;SDS011;11727;52.134;5.052;2023-06-14T06:26:41;10.52;;;1.50;;
23115;SDS011;11727;52.134;5.052;2023-06-14T06:29:06;4.50;;;1.58;;
23115;SDS011;11727;52.134;5.052;2023-06-14T06:31:32;2.22;;;1.45;;
23115;SDS011;11727;52.134;5.052;2023-06-14T06:33:57;2.50;;;1.45;;
23115;SDS011;11727;52.134;5.052;2023-06-14T06:36:23;7.55;;;1.67;;
23115;SDS011;11727;52.134;5.052;2023-06-14T06:38:49;7.03;;;1.77;;
23115;SDS011;11727;52.134;5.052;2023-06-14T06:41:15;2.65;;;1.27;;
23115;SDS011;11727;52.134;5.052;2023-06-14T06:43:41;3.22;;;1.50;;
23115;SDS011;11727;52.134;5.052;2023-06-14T06:46:07;2.83;;;1.27;;
23115;SDS011;11727;52.134;5.052;2023-06-14T06:48:32;14.48;;;1.83;;
23115;SDS011;11727;52.134;5.052;2023-06-14T06:50:58;3.53;;;1.38;;
23115;SDS011;11727;52.134;5.052;2023-06-14T06:53:24;4.95;;;1.42;;
23115;SDS011;11727;52.134;5.052;2023-06-14T06:55:50;3.25;;;1.52;;
23115;SDS011;11727;52.134;5.052;2023-06-14T06:58:15;3.25;;;1.42;;
23115;SDS011;11727;52.134;5.052;2023-06-14T07:00:41;3.30;;;1.33;;
23115;SDS011;11727;52.134;5.052;2023-06-14T07:03:06;5.22;;;1.77;;
23115;SDS011;11727;52.134;5.052;2023-06-14T07:05:33;3.15;;;1.42;;
23115;SDS011;11727;52.134;5.052;2023-06-14T07:07:58;2.83;;;1.33;;
23115;SDS011;11727;52.134;5.052;2023-06-14T07:10:24;2.00;;;1.30;;
23115;SDS011;11727;52.134;5.052;2023-06-14T07:12:50;2.60;;;1.35;;
23115;SDS011;11727;52.134;5.052;2023-06-14T07:15:16;1.98;;;1.10;;
23115;SDS011;11727;52.134;5.052;2023-06-14T07:17:42;6.18;;;1.20;;
23115;SDS011;11727;52.134;5.052;2023-06-14T07:20:08;2.10;;;1.25;;
23115;SDS011;11727;52.134;5.052;2023-06-14T07:22:38;6.00;;;1.55;;
23115;SDS011;11727;52.134;5.052;2023-06-14T07:25:06;5.55;;;1.80;;
23115;SDS011;11727;52.134;5.052;2023-06-14T07:27:33;3.08;;;1.45;;
23115;SDS011;11727;52.134;5.052;2023-06-14T07:29:59;2.33;;;1.23;;
23115;SDS011;11727;52.134;5.052;2023-06-14T07:32:24;4.35;;;1.70;;
23115;SDS011;11727;52.134;5.052;2023-06-14T07:34:50;4.20;;;1.40;;
23115;SDS011;11727;52.134;5.052;2023-06-14T07:37:15;4.72;;;1.85;;
23115;SDS011;11727;52.134;5.052;2023-06-14T07:39:41;9.27;;;1.88;;
23115;SDS011;11727;52.134;5.052;2023-06-14T07:42:07;5.25;;;1.88;;
23115;SDS011;11727;52.134;5.052;2023-06-14T07:44:32;5.47;;;1.60;;
23115;SDS011;11727;52.134;5.052;2023-06-14T07:46:58;5.20;;;1.60;;
23115;SDS011;11727;52.134;5.052;2023-06-14T07:49:24;4.90;;;1.83;;
23115;SDS011;11727;52.134;5.052;2023-06-14T07:51:50;7.15;;;1.75;;
23115;SDS011;11727;52.134;5.052;2023-06-14T07:54:16;2.35;;;1.02;;
23115;SDS011;11727;52.134;5.052;2023-06-14T07:56:42;3.25;;;1.50;;
23115;SDS011;11727;52.134;5.052;2023-06-14T07:59:08;2.60;;;1.30;;
23115;SDS011;11727;52.134;5.052;2023-06-14T08:01:33;2.28;;;1.70;;
23115;SDS011;11727;52.134;5.052;2023-06-14T08:03:59;7.13;;;1.42;;
23115;SDS011;11727;52.134;5.052;2023-06-14T08:06:26;2.97;;;1.52;;
23115;SDS011;11727;52.134;5.052;2023-06-14T08:08:52;1.83;;;1.17;;
23115;SDS011;11727;52.134;5.052;2023-06-14T08:11:17;2.58;;;1.65;;
23115;SDS011;11727;52.134;5.052;2023-06-14T08:13:43;2.45;;;1.38;;
23115;SDS011;11727;52.134;5.052;2023-06-14T08:16:08;3.72;;;1.40;;
23115;SDS011;11727;52.134;5.052;2023-06-14T08:18:35;2.28;;;1.25;;
23115;SDS011;11727;52.134;5.052;2023-06-14T08:21:01;3.25;;;1.48;;
23115;SDS011;11727;52.134;5.052;2023-06-14T08:23:27;3.95;;;2.00;;
23115;SDS011;11727;52.134;5.052;2023-06-14T08:25:53;6.55;;;1.48;;
23115;SDS011;11727;52.134;5.052;2023-06-14T08:28:20;6.22;;;1.20;;
23115;SDS011;11727;52.134;5.052;2023-06-14T08:30:45;2.00;;;1.30;;
23115;SDS011;11727;52.134;5.052;2023-06-14T08:33:11;2.92;;;1.23;;
23115;SDS011;11727;52.134;5.052;2023-06-14T08:35:36;1.95;;;1.05;;
23115;SDS011;11727;52.134;5.052;2023-06-14T08:40:30;3.97;;;1.55;;
23115;SDS011;11727;52.134;5.052;2023-06-14T08:42:56;2.83;;;1.33;;
23115;SDS011;11727;52.134;5.052;2023-06-14T08:45:22;1.70;;;1.48;;
23115;SDS011;11727;52.134;5.052;2023-06-14T08:47:50;1.30;;;0.93;;
23115;SDS011;11727;52.134;5.052;2023-06-14T08:50:23;1.15;;;1.00;;
23115;SDS011;11727;52.134;5.052;2023-06-14T08:52:51;6.55;;;0.90;;
23115;SDS011;11727;52.134;5.052;2023-06-14T08:55:19;2.35;;;1.05;;
23115;SDS011;11727;52.134;5.052;2023-06-14T08:57:50;2.03;;;1.25;;
23115;SDS011;11727;52.134;5.052;2023-06-14T09:00:18;4.75;;;1.02;;
23115;SDS011;11727;52.134;5.052;2023-06-14T09:05:11;2.50;;;1.20;;
23115;SDS011;11727;52.134;5.052;2023-06-14T09:07:39;1.37;;;0.80;;
23115;SDS011;11727;52.134;5.052;2023-06-14T09:10:07;2.25;;;1.15;;
23115;SDS011;11727;52.134;5.052;2023-06-14T09:12:37;2.05;;;1.00;;
23115;SDS011;11727;52.134;5.052;2023-06-14T09:15:04;1.98;;;0.90;;
23115;SDS011;11727;52.134;5.052;2023-06-14T09:17:38;5.55;;;1.00;;
23115;SDS011;11727;52.134;5.052;2023-06-14T09:20:07;2.85;;;1.13;;
23115;SDS011;11727;52.134;5.052;2023-06-14T09:22:38;1.58;;;1.02;;
23115;SDS011;11727;52.134;5.052;2023-06-14T09:25:04;2.33;;;1.40;;
23115;SDS011;11727;52.134;5.052;2023-06-14T09:27:31;1.98;;;1.00;;
23115;SDS011;11727;52.134;5.052;2023-06-14T09:29:57;3.25;;;0.88;;
23115;SDS011;11727;52.134;5.052;2023-06-14T09:32:23;3.10;;;0.90;;
23115;SDS011;11727;52.134;5.052;2023-06-14T09:34:49;1.55;;;1.00;;
23115;SDS011;11727;52.134;5.052;2023-06-14T09:37:28;1.27;;;0.90;;
23115;SDS011;11727;52.134;5.052;2023-06-14T09:39:55;2.92;;;1.10;;
23115;SDS011;11727;52.134;5.052;2023-06-14T09:42:21;2.13;;;0.80;;
23115;SDS011;11727;52.134;5.052;2023-06-14T09:44:51;1.63;;;1.08;;
23115;SDS011;11727;52.134;5.052;2023-06-14T09:47:17;2.95;;;1.00;;
23115;SDS011;11727;52.134;5.052;2023-06-14T09:49:43;1.02;;;0.80;;
23115;SDS011;11727;52.134;5.052;2023-06-14T09:52:10;1.23;;;0.90;;
23115;SDS011;11727;52.134;5.052;2023-06-14T09:54:41;4.45;;;1.10;;
23115;SDS011;11727;52.134;5.052;2023-06-14T09:57:20;1.70;;;1.00;;
23115;SDS011;11727;52.134;5.052;2023-06-14T09:59:47;3.28;;;0.70;;
23115;SDS011;11727;52.134;5.052;2023-06-14T10:02:26;1.58;;;0.70;;
23115;SDS011;11727;52.134;5.052;2023-06-14T10:05:04;0.95;;;0.70;;
23115;SDS011;11727;52.134;5.052;2023-06-14T10:07:32;1.70;;;0.98;;
23115;SDS011;11727;52.134;5.052;2023-06-14T10:10:05;3.72;;;0.95;;
23115;SDS011;11727;52.134;5.052;2023-06-14T10:12:32;3.63;;;1.48;;
23115;SDS011;11727;52.134;5.052;2023-06-14T10:14:57;2.05;;;1.35;;
23115;SDS011;11727;52.134;5.052;2023-06-14T10:17:34;1.05;;;0.70;;
23115;SDS011;11727;52.134;5.052;2023-06-14T10:20:16;1.90;;;1.00;;
23115;SDS011;11727;52.134;5.052;2023-06-14T10:23:03;1.75;;;0.70;;
23115;SDS011;11727;52.134;5.052;2023-06-14T10:25:56;2.58;;;1.23;;
23115;SDS011;11727;52.134;5.052;2023-06-14T10:28:22;5.93;;;1.10;;
23115;SDS011;11727;52.134;5.052;2023-06-14T10:33:31;1.40;;;0.85;;
23115;SDS011;11727;52.134;5.052;2023-06-14T10:36:24;4.50;;;1.13;;
23115;SDS011;11727;52.134;5.052;2023-06-14T10:41:36;1.73;;;1.13;;
23115;SDS011;11727;52.134;5.052;2023-06-14T10:46:38;6.00;;;0.70;;
23115;SDS011;11727;52.134;5.052;2023-06-14T10:49:43;1.00;;;0.87;;
23115;SDS011;11727;52.134;5.052;2023-06-14T10:52:14;0.85;;;0.65;;
23115;SDS011;11727;52.134;5.052;2023-06-14T10:57:34;3.53;;;0.73;;
23115;SDS011;11727;52.134;5.052;2023-06-14T11:00:24;1.67;;;0.70;;
23115;SDS011;11727;52.134;5.052;2023-06-14T11:05:49;2.22;;;1.00;;
23115;SDS011;11727;52.134;5.052;2023-06-14T11:08:37;1.42;;;0.65;;
23115;SDS011;11727;52.134;5.052;2023-06-14T11:11:08;3.83;;;0.70;;
23115;SDS011;11727;52.134;5.052;2023-06-14T11:13:37;1.95;;;0.95;;
23115;SDS011;11727;52.134;5.052;2023-06-14T11:16:12;5.07;;;1.30;;
23115;SDS011;11727;52.134;5.052;2023-06-14T11:18:40;1.88;;;0.80;;
23115;SDS011;11727;52.134;5.052;2023-06-14T11:21:07;1.80;;;0.73;;
23115;SDS011;11727;52.134;5.052;2023-06-14T11:23:34;2.38;;;0.68;;
23115;SDS011;11727;52.134;5.052;2023-06-14T11:26:00;2.27;;;0.97;;
23115;SDS011;11727;52.134;5.052;2023-06-14T11:28:35;1.52;;;0.65;;
23115;SDS011;11727;52.134;5.052;2023-06-14T11:31:01;3.03;;;1.00;;
23115;SDS011;11727;52.134;5.052;2023-06-14T11:33:28;3.65;;;1.13;;
23115;SDS011;11727;52.134;5.052;2023-06-14T11:35:54;1.40;;;0.70;;
23115;SDS011;11727;52.134;5.052;2023-06-14T11:38:20;2.03;;;1.10;;
23115;SDS011;11727;52.134;5.052;2023-06-14T11:40:45;2.67;;;0.98;;
23115;SDS011;11727;52.134;5.052;2023-06-14T11:43:11;1.58;;;0.90;;
23115;SDS011;11727;52.134;5.052;2023-06-14T11:45:38;5.43;;;0.70;;
23115;SDS011;11727;52.134;5.052;2023-06-14T11:48:04;0.85;;;0.60;;
23115;SDS011;11727;52.134;5.052;2023-06-14T11:50:31;1.10;;;0.75;;
23115;SDS011;11727;52.134;5.052;2023-06-14T11:52:59;1.17;;;0.60;;
23115;SDS011;11727;52.134;5.052;2023-06-14T11:55:31;5.15;;;1.55;;
23115;SDS011;11727;52.134;5.052;2023-06-14T12:00:35;1.50;;;1.10;;
23115;SDS011;11727;52.134;5.052;2023-06-14T12:03:02;1.63;;;0.90;;
23115;SDS011;11727;52.134;5.052;2023-06-14T12:05:28;1.10;;;0.70;;
23115;SDS011;11727;52.134;5.052;2023-06-14T12:08:00;3.33;;;0.80;;
23115;SDS011;11727;52.134;5.052;2023-06-14T12:10:28;1.15;;;0.60;;
23115;SDS011;11727;52.134;5.052;2023-06-14T12:12:58;3.10;;;0.70;;
23115;SDS011;11727;52.134;5.052;2023-06-14T12:15:24;1.08;;;0.60;;
23115;SDS011;11727;52.134;5.052;2023-06-14T12:17:53;1.88;;;1.15;;
23115;SDS011;11727;52.134;5.052;2023-06-14T12:20:19;0.85;;;0.57;;
23115;SDS011;11727;52.134;5.052;2023-06-14T12:22:53;1.02;;;0.73;;
23115;SDS011;11727;52.134;5.052;2023-06-14T12:25:27;2.28;;;0.95;;
23115;SDS011;11727;52.134;5.052;2023-06-14T12:27:55;3.88;;;0.80;;
23115;SDS011;11727;52.134;5.052;2023-06-14T12:30:21;1.20;;;0.70;;
23115;SDS011;11727;52.134;5.052;2023-06-14T12:32:47;1.98;;;1.02;;
23115;SDS011;11727;52.134;5.052;2023-06-14T12:35:13;1.38;;;0.60;;
23115;SDS011;11727;52.134;5.052;2023-06-14T12:37:40;1.98;;;1.00;;
23115;SDS011;11727;52.134;5.052;2023-06-14T12:40:05;1.45;;;0.77;;
23115;SDS011;11727;52.134;5.052;2023-06-14T12:42:32;2.00;;;0.70;;
23115;SDS011;11727;52.134;5.052;2023-06-14T12:44:59;1.85;;;0.82;;
23115;SDS011;11727;52.134;5.052;2023-06-14T12:47:24;1.65;;;1.08;;
23115;SDS011;11727;52.134;5.052;2023-06-14T12:49:50;1.67;;;0.80;;
23115;SDS011;11727;52.134;5.052;2023-06-14T12:52:16;2.33;;;0.80;;
23115;SDS011;11727;52.134;5.052;2023-06-14T12:54:41;2.55;;;0.82;;
23115;SDS011;11727;52.134;5.052;2023-06-14T12:57:07;2.15;;;0.95;;
23115;SDS011;11727;52.134;5.052;2023-06-14T12:59:33;9.57;;;1.60;;
23115;SDS011;11727;52.134;5.052;2023-06-14T13:02:20;1.58;;;0.80;;
23115;SDS011;11727;52.134;5.052;2023-06-14T13:04:47;2.10;;;0.75;;
23115;SDS011;11727;52.134;5.052;2023-06-14T13:07:12;0.90;;;0.70;;
23115;SDS011;11727;52.134;5.052;2023-06-14T13:09:40;2.67;;;1.48;;
23115;SDS011;11727;52.134;5.052;2023-06-14T13:12:06;1.27;;;0.50;;
23115;SDS011;11727;52.134;5.052;2023-06-14T13:14:32;0.73;;;0.55;;
23115;SDS011;11727;52.134;5.052;2023-06-14T13:16:58;2.40;;;1.05;;
23115;SDS011;11727;52.134;5.052;2023-06-14T13:19:23;3.25;;;0.93;;
23115;SDS011;11727;52.134;5.052;2023-06-14T13:21:49;0.82;;;0.65;;
23115;SDS011;11727;52.134;5.052;2023-06-14T13:24:15;4.43;;;0.80;;
23115;SDS011;11727;52.134;5.052;2023-06-14T13:26:40;1.73;;;0.75;;
23115;SDS011;11727;52.134;5.052;2023-06-14T13:29:06;4.57;;;0.85;;
23115;SDS011;11727;52.134;5.052;2023-06-14T13:31:32;1.67;;;0.80;;
23115;SDS011;11727;52.134;5.052;2023-06-14T13:34:07;2.05;;;0.80;;
23115;SDS011;11727;52.134;5.052;2023-06-14T13:41:48;2.08;;;0.70;;
23115;SDS011;11727;52.134;5.052;2023-06-14T13:44:14;4.38;;;1.05;;
23115;SDS011;11727;52.134;5.052;2023-06-14T13:46:43;6.68;;;0.90;;
23115;SDS011;11727;52.134;5.052;2023-06-14T13:49:09;2.53;;;0.90;;
23115;SDS011;11727;52.134;5.052;2023-06-14T13:51:37;6.20;;;1.25;;
23115;SDS011;11727;52.134;5.052;2023-06-14T13:54:03;3.75;;;1.05;;
23115;SDS011;11727;52.134;5.052;2023-06-14T13:56:29;1.15;;;0.70;;
23115;SDS011;11727;52.134;5.052;2023-06-14T13:58:56;2.72;;;1.00;;
23115;SDS011;11727;52.134;5.052;2023-06-14T14:01:22;1.90;;;0.93;;
23115;SDS011;11727;52.134;5.052;2023-06-14T14:03:48;14.43;;;1.00;;
23115;SDS011;11727;52.134;5.052;2023-06-14T14:06:14;1.58;;;0.80;;
23115;SDS011;11727;52.134;5.052;2023-06-14T14:08:41;1.85;;;0.95;;
23115;SDS011;11727;52.134;5.052;2023-06-14T14:11:07;2.10;;;0.80;;
23115;SDS011;11727;52.134;5.052;2023-06-14T14:13:33;7.80;;;0.75;;
23115;SDS011;11727;52.134;5.052;2023-06-14T14:16:01;0.93;;;0.60;;
23115;SDS011;11727;52.134;5.052;2023-06-14T14:18:28;1.20;;;0.70;;
23115;SDS011;11727;52.134;5.052;2023-06-14T14:20:54;7.50;;;0.95;;
23115;SDS011;11727;52.134;5.052;2023-06-14T14:23:20;1.60;;;0.80;;
23115;SDS011;11727;52.134;5.052;2023-06-14T14:25:46;1.80;;;0.80;;
23115;SDS011;11727;52.134;5.052;2023-06-14T14:28:12;1.10;;;0.60;;
23115;SDS011;11727;52.134;5.052;2023-06-14T14:30:40;4.25;;;0.60;;
23115;SDS011;11727;52.134;5.052;2023-06-14T14:33:09;11.98;;;1.38;;
23115;SDS011;11727;52.134;5.052;2023-06-14T14:35:40;1.25;;;0.90;;
23115;SDS011;11727;52.134;5.052;2023-06-14T14:38:07;5.97;;;0.82;;
23115;SDS011;11727;52.134;5.052;2023-06-14T14:40:32;2.13;;;0.85;;
23115;SDS011;11727;52.134;5.052;2023-06-14T14:42:58;5.35;;;0.88;;
23115;SDS011;11727;52.134;5.052;2023-06-14T14:45:23;3.53;;;0.70;;
23115;SDS011;11727;52.134;5.052;2023-06-14T14:47:49;2.28;;;0.80;;
23115;SDS011;11727;52.134;5.052;2023-06-14T14:50:15;2.10;;;0.80;;
23115;SDS011;11727;52.134;5.052;2023-06-14T14:52:41;0.82;;;0.63;;
23115;SDS011;11727;52.134;5.052;2023-06-14T14:55:07;1.05;;;0.70;;
23115;SDS011;11727;52.134;5.052;2023-06-14T14:57:33;2.67;;;1.05;;
23115;SDS011;11727;52.134;5.052;2023-06-14T14:59:58;0.85;;;0.68;;
23115;SDS011;11727;52.134;5.052;2023-06-14T15:02:24;2.42;;;0.80;;
23115;SDS011;11727;52.134;5.052;2023-06-14T15:04:50;1.30;;;0.77;;
23115;SDS011;11727;52.134;5.052;2023-06-14T15:07:16;1.80;;;1.07;;
23115;SDS011;11727;52.134;5.052;2023-06-14T15:09:42;1.80;;;1.00;;
23115;SDS011;11727;52.134;5.052;2023-06-14T15:12:08;6.35;;;1.00;;
23115;SDS011;11727;52.134;5.052;2023-06-14T15:14:35;2.17;;;1.35;;
23115;SDS011;11727;52.134;5.052;2023-06-14T15:17:01;1.20;;;0.60;;
23115;SDS011;11727;52.134;5.052;2023-06-14T15:19:27;3.00;;;1.38;;
23115;SDS011;11727;52.134;5.052;2023-06-14T15:21:53;1.60;;;0.90;;
23115;SDS011;11727;52.134;5.052;2023-06-14T15:24:19;1.13;;;0.70;;
23115;SDS011;11727;52.134;5.052;2023-06-14T15:26:45;1.83;;;0.93;;